Time;durP1;ratioP1;P1;durP2;ratioP2;P2;SDS_P1;SDS_P2;PMS_P1;PMS_P2;Temp;Humidity;BMP_temperature;BMP_pressure;BME280_temperature;BME280_humidity;BME280_pressure;Samples;Min_cycle;Max_cycle;Signal;HPM_P1;HPM_P2
2021/11/20 00:01:06;;;;;;;14.15;6.78;;;;;;;8.25;85.91;100732.30;1777979;79;21629;-65
2021/11/20 00:03:34;;;;;;;12.40;6.05;;;;;;;8.16;86.15;100729.41;1777054;80;21112;-57
2021/11/20 00:06:04;;;;;;;13.85;7.78;;;;;;;8.12;86.42;100720.59;1778839;80;21466;-57
2021/11/20 00:08:30;;;;;;;15.88;6.95;;;;;;;8.08;86.51;100721.58;1772414;79;21519;-56
2021/11/20 00:11:00;;;;;;;11.20;6.90;;;;;;;8.05;86.60;100730.11;1771280;79;21795;-56
2021/11/20 00:13:28;;;;;;;18.95;7.00;;;;;;;7.99;86.74;100733.84;1783779;79;21058;-64
2021/11/20 00:15:57;;;;;;;12.37;6.25;;;;;;;7.93;86.85;100728.19;1773027;80;21027;-64
2021/11/20 00:18:24;;;;;;;10.38;6.20;;;;;;;7.89;86.97;100733.19;1771768;79;21451;-65
2021/11/20 00:20:56;;;;;;;10.78;6.30;;;;;;;7.84;87.08;100732.39;1774618;79;21054;-65
2021/11/20 00:23:27;;;;;;;10.78;6.22;;;;;;;7.78;87.27;100735.22;1776653;80;21103;-65
2021/11/20 00:25:56;;;;;;;11.03;6.03;;;;;;;7.76;87.44;100735.71;1777822;80;21079;-57
2021/11/20 00:28:39;;;;;;;12.28;5.78;;;;;;;7.74;87.73;100723.28;1757688;80;21543;-56
2021/11/20 00:30:59;;;;;;;;;;;;;;;7.74;87.75;100719.28;1771387;79;21093;-56
2021/11/20 00:33:31;;;;;;;12.00;5.65;;;;;;;7.76;87.80;100715.70;1772236;79;20215;-56
2021/11/20 00:35:59;;;;;;;9.53;5.05;;;;;;;7.72;87.78;100714.44;1774788;80;21097;-57
2021/11/20 00:38:27;;;;;;;13.15;6.08;;;;;;;7.71;87.75;100710.45;1768570;80;21066;-56
2021/11/20 00:41:03;;;;;;;12.93;5.55;;;;;;;7.69;87.81;100709.18;1778239;79;21089;-56
2021/11/20 00:43:31;;;;;;;13.88;5.83;;;;;;;7.67;87.66;100712.34;1777696;80;21062;-59
2021/11/20 00:45:58;;;;;;;12.63;5.87;;;;;;;7.65;87.66;100714.17;1779823;79;21392;-57
2021/11/20 00:48:26;;;;;;;12.20;5.95;;;;;;;7.62;87.64;100710.22;1778090;80;21102;-58
2021/11/20 00:50:57;;;;;;;9.95;5.92;;;;;;;7.60;87.59;100706.70;1777578;80;21431;-56
2021/11/20 00:53:24;;;;;;;15.48;6.37;;;;;;;7.59;87.60;100707.18;1771014;79;21107;-57
2021/11/20 00:55:51;;;;;;;12.25;6.00;;;;;;;7.60;87.60;100696.93;1777360;79;21042;-56
2021/11/20 00:58:18;;;;;;;12.78;5.87;;;;;;;7.62;87.53;100698.20;1780590;79;20972;-57
2021/11/20 01:00:50;;;;;;;13.48;5.75;;;;;;;7.62;87.58;100702.21;1777850;79;22334;-56
2021/11/20 01:03:17;;;;;;;11.08;5.50;;;;;;;7.62;87.78;100708.88;1778460;80;20995;-57
2021/11/20 01:05:44;;;;;;;10.85;5.40;;;;;;;7.65;88.07;100702.16;1785372;79;21034;-57
2021/11/20 01:08:12;;;;;;;11.63;5.62;;;;;;;7.71;88.32;100701.12;1794411;79;21003;-57
2021/11/20 01:10:42;;;;;;;11.48;5.28;;;;;;;7.82;88.50;100698.19;1796447;78;21052;-57
2021/11/20 01:13:09;;;;;;;10.48;4.85;;;;;;;7.92;88.72;100701.07;1796137;78;21120;-57
2021/11/20 01:15:41;;;;;;;9.90;4.80;;;;;;;8.06;89.01;100690.48;1792055;78;21050;-57
2021/11/20 01:18:09;;;;;;;9.13;4.80;;;;;;;8.21;89.12;100689.23;1798084;79;20958;-57
2021/11/20 01:20:38;;;;;;;10.90;4.65;;;;;;;8.35;89.33;100688.87;1801014;78;21068;-57
2021/11/20 01:23:06;;;;;;;7.97;4.05;;;;;;;8.51;89.17;100682.67;1793259;79;21095;-58
2021/11/20 01:25:41;;;;;;;7.62;4.42;;;;;;;8.64;89.11;100678.75;1768722;79;21136;-57
2021/11/20 01:28:28;;;;;;;8.05;4.40;;;;;;;8.79;88.88;100680.55;1799267;79;20990;-56
2021/11/20 01:31:01;;;;;;;;;;;;;;;8.93;88.53;100675.70;1776553;79;21065;-56
2021/11/20 01:33:30;;;;;;;8.38;3.90;;;;;;;9.04;88.22;100668.69;1790489;79;20205;-56
2021/11/20 01:35:57;;;;;;;7.35;4.10;;;;;;;9.15;87.90;100668.37;1792875;78;21055;-56
2021/11/20 01:38:24;;;;;;;6.55;3.70;;;;;;;9.22;87.35;100665.05;1783496;79;21081;-56
2021/11/20 01:40:52;;;;;;;10.80;4.17;;;;;;;9.29;87.07;100670.17;1789000;79;21041;-56
2021/11/20 01:43:21;;;;;;;15.08;4.22;;;;;;;9.37;86.76;100670.38;1792448;79;21014;-58
2021/11/20 01:46:01;;;;;;;11.45;3.98;;;;;;;9.46;86.39;100667.41;1793021;79;21555;-56
2021/11/20 01:48:57;;;;;;;8.25;4.55;;;;;;;9.52;86.02;100669.02;1794168;78;21054;-57
2021/11/20 01:51:39;;;;;;;6.35;3.85;;;;;;;9.57;85.69;100663.94;1797880;79;21046;-56
2021/11/20 01:54:35;;;;;;;6.70;4.20;;;;;;;9.58;85.29;100665.69;1793773;79;21034;-56
2021/11/20 01:57:38;;;;;;;7.00;3.92;;;;;;;9.55;84.92;100663.11;1791111;79;20951;-57
2021/11/20 02:00:14;;;;;;;8.45;4.08;;;;;;;9.50;84.89;100663.70;1791095;79;21112;-56
2021/11/20 02:02:58;;;;;;;8.53;4.00;;;;;;;9.46;84.81;100660.71;1801990;79;21514;-56
2021/11/20 02:06:01;;;;;;;7.17;3.93;;;;;;;9.44;84.86;100660.78;1781320;78;21146;-58
2021/11/20 02:08:46;;;;;;;7.92;4.00;;;;;;;9.46;84.83;100652.23;1765775;80;21107;-57
2021/11/20 02:11:19;;;;;;;9.13;4.55;;;;;;;9.46;84.69;100657.59;1739711;79;21524;-57
2021/11/20 02:13:46;;;;;;;7.22;4.10;;;;;;;9.49;84.79;100654.40;1772856;80;22220;-57
2021/11/20 02:16:29;;;;;;;7.15;4.35;;;;;;;9.51;84.65;100655.22;1755554;80;21044;-57
2021/11/20 02:18:59;;;;;;;6.83;3.87;;;;;;;9.51;84.45;100650.77;1773054;80;21050;-57
2021/11/20 02:21:36;;;;;;;6.25;3.75;;;;;;;9.49;84.42;100654.40;1774090;80;21460;-56
2021/11/20 02:24:03;;;;;;;10.68;3.87;;;;;;;9.47;84.45;100645.06;1774726;80;21109;-57
2021/11/20 02:26:31;;;;;;;9.15;4.30;;;;;;;9.44;84.32;100641.16;1781087;80;21026;-57
2021/11/20 02:29:04;;;;;;;6.20;3.92;;;;;;;9.39;84.31;100635.94;1772433;80;20966;-58
2021/11/20 02:31:41;;;;;;;6.97;3.85;;;;;;;9.37;84.50;100636.94;1776768;79;21063;-57
2021/11/20 02:34:09;;;;;;;8.78;3.85;;;;;;;9.34;84.48;100629.87;1778253;79;21065;-56
2021/11/20 02:36:36;;;;;;;10.50;3.98;;;;;;;9.31;84.59;100631.31;1775504;80;21536;-56
2021/11/20 02:39:14;;;;;;;7.75;4.37;;;;;;;9.34;84.71;100635.22;1773110;80;21039;-57
2021/11/20 02:41:44;;;;;;;7.53;4.55;;;;;;;9.36;84.60;100629.36;1784329;79;21011;-57
2021/11/20 02:44:13;;;;;;;7.15;3.80;;;;;;;9.37;84.50;100627.09;1777129;79;21971;-56
2021/11/20 02:46:44;;;;;;;7.08;4.42;;;;;;;9.36;84.42;100625.34;1781721;80;21536;-56
2021/11/20 02:49:11;;;;;;;8.30;4.47;;;;;;;9.34;84.19;100621.84;1772891;80;21090;-56
2021/11/20 02:51:45;;;;;;;8.63;4.83;;;;;;;9.30;84.31;100626.44;1772829;80;21014;-58
2021/11/20 02:54:16;;;;;;;7.58;4.28;;;;;;;9.32;84.08;100626.38;1779621;80;21555;-58
2021/11/20 02:56:48;;;;;;;7.70;4.72;;;;;;;9.29;83.71;100625.13;1776325;79;21541;-57
2021/11/20 02:59:16;;;;;;;7.70;4.62;;;;;;;9.26;83.42;100620.74;1779209;80;20984;-57
2021/11/20 03:01:45;;;;;;;8.70;5.15;;;;;;;9.23;83.12;100624.00;1779340;80;21024;-56
2021/11/20 03:04:17;;;;;;;10.72;5.12;;;;;;;9.20;83.01;100610.25;1757625;80;20983;-64
2021/11/20 03:06:44;;;;;;;10.53;4.90;;;;;;;9.20;82.76;100604.03;1789645;79;21073;-64
2021/11/20 03:09:13;;;;;;;10.90;4.58;;;;;;;9.21;82.54;100607.13;1796198;79;22453;-64
2021/11/20 03:11:42;;;;;;;6.42;4.50;;;;;;;9.22;82.17;100604.86;1796508;78;21062;-63
2021/11/20 03:14:09;;;;;;;9.20;5.42;;;;;;;9.20;81.66;100599.55;1802767;78;21570;-65
2021/11/20 03:16:49;;;;;;;9.73;5.28;;;;;;;9.15;81.30;100601.50;1796147;79;21006;-64
2021/11/20 03:19:17;;;;;;;10.98;5.20;;;;;;;9.08;81.03;100600.81;1793931;79;21011;-64
2021/11/20 03:21:47;;;;;;;10.08;5.03;;;;;;;9.05;80.94;100604.92;1797168;79;21175;-64
2021/11/20 03:24:16;;;;;;;10.18;5.10;;;;;;;9.05;80.56;100608.04;1781579;79;21033;-64
2021/11/20 03:26:44;;;;;;;9.33;5.37;;;;;;;9.03;80.33;100596.07;1793283;79;21029;-64
2021/11/20 03:29:11;;;;;;;9.83;5.25;;;;;;;9.03;80.19;100590.72;1791853;79;21526;-64
2021/11/20 03:31:39;;;;;;;10.85;5.55;;;;;;;9.04;79.74;100592.47;1796808;79;21033;-64
2021/11/20 03:34:06;;;;;;;11.18;5.62;;;;;;;9.04;79.69;100585.78;1792322;79;21854;-65
2021/11/20 03:36:35;;;;;;;10.32;5.28;;;;;;;9.03;79.33;100578.21;1803444;79;21064;-63
2021/11/20 03:39:06;;;;;;;8.83;5.15;;;;;;;8.99;79.07;100568.54;1763920;79;20942;-64
2021/11/20 03:41:33;;;;;;;10.40;5.12;;;;;;;8.97;79.01;100565.04;1798458;79;21013;-64
2021/11/20 03:44:00;;;;;;;9.03;5.10;;;;;;;8.96;78.89;100567.78;1803765;78;21088;-65
2021/11/20 03:46:29;;;;;;;8.68;5.45;;;;;;;8.96;78.79;100567.78;1801237;78;21030;-65
2021/11/20 03:48:56;;;;;;;9.55;5.15;;;;;;;8.96;78.70;100570.45;1792275;79;21073;-65
2021/11/20 03:51:23;;;;;;;14.00;4.92;;;;;;;8.97;78.52;100572.20;1782703;79;20973;-63
2021/11/20 03:53:51;;;;;;;10.05;4.58;;;;;;;8.95;78.44;100566.00;1790391;79;21605;-65
2021/11/20 03:56:19;;;;;;;9.33;5.22;;;;;;;8.97;78.18;100561.51;1787594;79;20959;-65
2021/11/20 03:58:46;;;;;;;7.87;4.85;;;;;;;8.93;78.12;100565.17;1786807;78;21130;-65
2021/11/20 04:01:16;;;;;;;8.28;4.47;;;;;;;8.90;78.16;100564.83;1786509;78;21092;-65
2021/11/20 04:03:44;;;;;;;9.68;4.28;;;;;;;8.89;78.25;100561.27;1792440;79;21073;-65
2021/11/20 04:06:16;;;;;;;10.43;4.00;;;;;;;8.88;78.22;100559.99;1793301;79;21157;-65
2021/11/20 04:08:47;;;;;;;7.55;4.10;;;;;;;8.89;78.40;100567.95;1778377;79;20932;-65
2021/11/20 04:11:31;;;;;;;7.05;4.22;;;;;;;8.91;78.32;100564.35;1773263;80;21508;-65
2021/11/20 04:13:59;;;;;;;7.25;3.62;;;;;;;8.88;78.44;100562.19;1777950;80;21539;-64
2021/11/20 04:16:26;;;;;;;8.03;3.92;;;;;;;8.92;78.52;100567.44;1775416;80;20933;-65
2021/11/20 04:18:54;;;;;;;6.40;3.37;;;;;;;8.92;78.63;100567.44;1781104;79;21027;-64
2021/11/20 04:21:22;;;;;;;7.03;3.50;;;;;;;8.92;78.81;100567.44;1767663;80;21016;-64
2021/11/20 04:23:50;;;;;;;5.33;3.27;;;;;;;8.94;79.00;100566.92;1777942;80;21952;-64
2021/11/20 04:26:20;;;;;;;5.20;3.27;;;;;;;8.98;79.28;100560.58;1774186;80;21036;-65
2021/11/20 04:28:47;;;;;;;5.37;3.00;;;;;;;9.04;79.31;100565.73;1775365;80;21570;-63
2021/11/20 04:31:16;;;;;;;5.70;3.05;;;;;;;9.10;79.46;100571.35;1770424;80;20986;-56
2021/11/20 04:33:44;;;;;;;6.20;2.85;;;;;;;9.17;79.56;100567.10;1767570;80;21491;-57
2021/11/20 04:36:11;;;;;;;4.05;2.45;;;;;;;9.24;79.45;100573.58;1775194;80;21130;-63
2021/11/20 04:38:39;;;;;;;5.75;2.50;;;;;;;9.26;79.65;100575.74;1780644;79;22132;-64
2021/11/20 04:41:06;;;;;;;13.43;2.72;;;;;;;9.25;80.38;100572.17;1774963;79;21059;-64
2021/11/20 04:43:33;;;;;;;4.22;2.50;;;;;;;9.24;81.37;100562.41;1776642;80;21093;-56
2021/11/20 04:46:01;;;;;;;4.90;2.80;;;;;;;9.24;82.10;100565.55;1779369;79;21035;-57
2021/11/20 04:48:28;;;;;;;5.10;2.67;;;;;;;9.26;82.60;100570.39;1778017;79;21137;-57
2021/11/20 04:50:57;;;;;;;6.35;3.08;;;;;;;9.29;83.16;100570.29;1776165;79;21577;-57
2021/11/20 04:53:26;;;;;;;4.45;2.80;;;;;;;9.28;83.44;100561.41;1774960;80;32716;-57
2021/11/20 04:55:56;;;;;;;5.20;2.90;;;;;;;9.31;83.83;100565.76;1783514;79;21419;-64
2021/11/20 04:58:21;;;;;;;3.30;2.42;;;;;;;9.34;84.18;100551.42;1775030;80;21027;-65
2021/11/20 05:00:54;;;;;;;5.55;2.95;;;;;;;9.34;84.69;100541.58;1772342;80;21091;-64
2021/11/20 05:03:22;;;;;;;5.60;2.87;;;;;;;9.33;85.34;100541.16;1775332;79;21431;-64
2021/11/20 05:05:51;;;;;;;5.20;3.05;;;;;;;9.33;86.00;100539.83;1779964;79;20959;-64
2021/11/20 05:08:20;;;;;;;7.62;3.27;;;;;;;9.34;86.49;100544.25;1778734;80;21007;-56
2021/11/20 05:10:49;;;;;;;4.42;2.80;;;;;;;9.35;86.98;100541.13;1780365;79;21431;-65
2021/11/20 05:13:18;;;;;;;6.92;3.02;;;;;;;9.36;87.41;100537.52;1775208;79;21397;-64
2021/11/20 05:15:46;;;;;;;4.75;2.90;;;;;;;9.39;87.98;100540.95;1783818;80;21038;-65
2021/11/20 05:18:13;;;;;;;4.37;3.00;;;;;;;9.41;88.44;100541.80;1775898;80;21439;-57
2021/11/20 05:20:59;;;;;;;5.70;3.27;;;;;;;9.45;88.85;100535.42;1777798;80;21042;-57
2021/11/20 05:23:29;;;;;;;5.10;3.30;;;;;;;9.50;89.30;100536.58;1785005;79;20953;-57
2021/11/20 05:25:56;;;;;;;4.87;3.10;;;;;;;9.52;89.40;100543.23;1783636;79;21108;-58
2021/11/20 05:28:22;;;;;;;4.00;2.67;;;;;;;9.54;89.69;100534.68;1775193;79;20920;-65
2021/11/20 05:30:50;;;;;;;6.33;3.55;;;;;;;9.55;89.87;100539.10;1778154;80;21036;-64
2021/11/20 05:33:26;;;;;;;5.22;3.40;;;;;;;9.54;90.02;100540.92;1779807;79;20950;-64
2021/11/20 05:35:54;;;;;;;3.50;2.42;;;;;;;9.54;90.28;100548.06;1778653;80;21535;-56
2021/11/20 05:38:21;;;;;;;4.42;2.80;;;;;;;9.58;90.54;100543.01;1780678;79;21072;-57
2021/11/20 05:40:48;;;;;;;3.80;2.45;;;;;;;9.58;90.45;100541.67;1775437;80;21088;-57
2021/11/20 05:43:18;;;;;;;4.95;2.80;;;;;;;9.59;90.58;100541.63;1779972;79;20991;-55
2021/11/20 05:45:54;;;;;;;4.25;2.77;;;;;;;9.62;90.77;100543.34;1773378;79;21468;-57
2021/11/20 05:48:21;;;;;;;5.80;3.05;;;;;;;9.66;90.96;100549.00;1778253;78;21014;-57
2021/11/20 05:50:49;;;;;;;3.75;2.67;;;;;;;9.71;91.05;100540.33;1783763;79;21759;-58
2021/11/20 05:53:20;;;;;;;4.05;2.60;;;;;;;9.78;90.86;100533.41;1780487;79;21027;-56
2021/11/20 05:55:48;;;;;;;7.37;2.70;;;;;;;9.79;90.75;100540.52;1781899;79;21104;-58
2021/11/20 05:58:16;;;;;;;6.17;3.25;;;;;;;9.77;90.69;100535.23;1776366;80;21083;-57
2021/11/20 06:00:47;;;;;;;6.70;2.90;;;;;;;9.78;90.78;100540.11;1784493;78;21289;-56
2021/11/20 06:03:15;;;;;;;3.50;2.67;;;;;;;9.81;90.96;100540.89;1779840;80;21493;-57
2021/11/20 06:05:45;;;;;;;5.97;2.90;;;;;;;9.85;90.90;100530.95;1782641;80;21065;-57
2021/11/20 06:08:13;;;;;;;4.97;2.98;;;;;;;9.88;90.82;100537.53;1776724;79;20912;-57
2021/11/20 06:10:42;;;;;;;5.67;2.80;;;;;;;9.88;90.83;100541.55;1778376;80;21045;-57
2021/11/20 06:13:11;;;;;;;5.05;3.10;;;;;;;9.90;90.95;100553.08;1745148;81;21418;-58
2021/11/20 06:15:40;;;;;;;4.33;3.20;;;;;;;9.91;90.99;100551.27;1773580;80;21778;-58
2021/11/20 06:18:09;;;;;;;4.53;3.00;;;;;;;9.92;91.07;100549.88;1748373;80;20974;-57
2021/11/20 06:20:39;;;;;;;3.90;3.05;;;;;;;9.95;91.18;100557.80;1770758;79;21552;-65
2021/11/20 06:23:10;;;;;;;10.08;3.62;;;;;;;9.99;91.19;100553.22;1779845;79;20963;-65
2021/11/20 06:25:38;;;;;;;5.90;3.27;;;;;;;10.06;91.22;100556.53;1774960;80;21161;-64
2021/11/20 06:28:06;;;;;;;5.20;3.50;;;;;;;10.12;91.16;100565.70;1774034;80;21088;-64
2021/11/20 06:30:33;;;;;;;8.55;3.70;;;;;;;10.20;91.17;100560.94;1777836;80;20884;-64
2021/11/20 06:33:01;;;;;;;7.55;3.92;;;;;;;10.28;90.96;100564.23;1774687;80;21330;-64
2021/11/20 06:35:36;;;;;;;8.33;3.98;;;;;;;10.35;90.76;100561.31;1775339;80;20970;-65
2021/11/20 06:38:04;;;;;;;6.25;3.72;;;;;;;10.44;90.64;100567.69;1777238;79;21095;-65
2021/11/20 06:40:36;;;;;;;8.05;3.85;;;;;;;10.54;90.37;100573.13;1774076;79;21823;-65
2021/11/20 06:43:04;;;;;;;7.78;4.80;;;;;;;10.60;90.04;100575.56;1779505;79;21094;-64
2021/11/20 06:45:38;;;;;;;6.37;4.28;;;;;;;10.66;89.80;100572.23;1777006;80;21004;-66
2021/11/20 06:48:06;;;;;;;6.55;4.35;;;;;;;10.73;89.65;100571.95;1772796;79;20982;-64
2021/11/20 06:50:34;;;;;;;8.75;4.60;;;;;;;10.83;89.43;100572.92;1769806;79;21518;-64
2021/11/20 06:53:21;;;;;;;8.33;4.47;;;;;;;10.90;89.14;100569.08;1726740;81;21875;-65
2021/11/20 06:55:56;;;;;;;10.70;5.08;;;;;;;11.01;88.80;100568.66;1727631;82;21121;-64
2021/11/20 07:01:14;;;;;;;17.10;4.62;;;;;;;11.14;88.10;100553.80;1774439;80;21447;-65
2021/11/20 07:03:58;;;;;;;15.35;4.17;;;;;;;11.25;87.44;100555.19;1775748;80;21114;-64
2021/11/20 07:06:31;;;;;;;6.53;4.20;;;;;;;11.34;87.21;100564.19;1774080;80;21099;-57
2021/11/20 07:08:58;;;;;;;12.10;4.62;;;;;;;11.46;86.75;100562.80;1771348;79;21085;-57
2021/11/20 07:11:26;;;;;;;9.88;4.40;;;;;;;11.57;86.20;100566.37;1778035;80;21313;-58
2021/11/20 07:13:54;;;;;;;10.32;4.53;;;;;;;11.64;85.51;100569.23;1777891;80;21030;-57
2021/11/20 07:16:24;;;;;;;9.73;4.15;;;;;;;11.68;85.10;100576.21;1778597;80;21027;-57
2021/11/20 07:18:53;;;;;;;7.70;4.00;;;;;;;11.74;84.87;100570.57;1778037;80;21704;-57
2021/11/20 07:21:38;;;;;;;7.58;4.30;;;;;;;11.81;84.34;100583.27;1778300;79;21030;-57
2021/11/20 07:24:16;;;;;;;11.12;4.50;;;;;;;11.85;84.12;100573.28;1775869;80;21069;-57
2021/11/20 07:26:44;;;;;;;10.53;4.45;;;;;;;11.93;84.02;100572.47;1778469;80;20971;-58
2021/11/20 07:29:11;;;;;;;17.05;4.05;;;;;;;12.07;83.66;100571.03;1778904;80;21049;-58
2021/11/20 07:31:41;;;;;;;12.65;4.28;;;;;;;12.16;82.86;100565.23;1774653;80;21053;-58
2021/11/20 07:34:08;;;;;;;21.62;4.33;;;;;;;12.25;82.44;100565.30;1778574;80;21078;-57
2021/11/20 07:36:37;;;;;;;9.68;4.47;;;;;;;12.36;81.95;100564.81;1778484;80;20966;-57
2021/11/20 07:39:08;;;;;;;14.55;3.98;;;;;;;12.45;81.68;100559.89;1778443;79;21076;-59
2021/11/20 07:41:35;;;;;;;7.05;3.87;;;;;;;12.58;81.12;100570.95;1738320;81;21024;-59
2021/11/20 07:44:04;;;;;;;9.95;4.72;;;;;;;12.74;80.64;100563.03;1724401;82;21894;-56
2021/11/20 07:46:35;;;;;;;10.75;3.83;;;;;;;12.89;79.76;100571.33;1732309;80;21121;-59
2021/11/20 07:49:04;;;;;;;11.70;4.50;;;;;;;13.02;79.22;100571.12;1737163;80;21075;-57
2021/11/20 07:51:35;;;;;;;10.38;3.70;;;;;;;13.16;78.30;100579.02;1740325;81;21232;-58
2021/11/20 07:54:03;;;;;;;13.53;3.98;;;;;;;13.23;77.59;100568.83;1738048;81;21290;-57
2021/11/20 07:56:30;;;;;;;11.40;3.72;;;;;;;13.30;77.24;100571.15;1733888;81;21338;-59
2021/11/20 07:58:58;;;;;;;11.22;3.45;;;;;;;13.42;76.57;100578.20;1742700;81;21045;-58
2021/11/20 08:01:26;;;;;;;6.45;3.72;;;;;;;13.50;75.98;100573.36;1737551;80;21119;-57
2021/11/20 08:03:53;;;;;;;14.13;3.80;;;;;;;13.56;75.55;100586.51;1732476;81;21057;-57
2021/11/20 08:06:25;;;;;;;8.03;3.60;;;;;;;13.64;75.05;100577.16;1730869;81;21095;-56
2021/11/20 08:09:09;;;;;;;19.48;3.92;;;;;;;13.74;74.60;100580.65;1671666;82;21503;-58
2021/11/20 08:11:47;;;;;;;20.97;4.25;;;;;;;13.82;73.94;100583.45;1725625;81;21512;-58
2021/11/20 08:14:17;;;;;;;14.50;3.60;;;;;;;13.90;73.45;100577.18;1721297;81;21082;-60
2021/11/20 08:16:54;;;;;;;8.95;3.08;;;;;;;14.00;72.84;100591.05;1718483;81;21107;-56
2021/11/20 08:19:29;;;;;;;13.60;3.45;;;;;;;14.11;72.27;100579.21;1725847;81;21056;-57
2021/11/20 08:21:58;;;;;;;7.20;3.00;;;;;;;14.23;71.95;100576.34;1676708;81;21036;-65
2021/11/20 08:24:28;;;;;;;4.97;2.87;;;;;;;14.36;71.58;100590.04;1731436;81;21140;-65
2021/11/20 08:26:56;;;;;;;5.25;2.75;;;;;;;14.47;71.33;100582.72;1729361;81;21027;-65
2021/11/20 08:29:26;;;;;;;6.35;2.90;;;;;;;14.56;70.76;100583.59;1722344;81;21068;-66
2021/11/20 08:31:52;;;;;;;5.60;2.70;;;;;;;14.60;70.50;100579.76;1725197;81;21115;-65
2021/11/20 08:34:24;;;;;;;8.55;3.00;;;;;;;14.64;70.06;100572.84;1724339;81;21972;-65
2021/11/20 08:36:55;;;;;;;6.22;2.52;;;;;;;14.77;69.76;100583.86;1730738;80;21087;-65
2021/11/20 08:39:36;;;;;;;6.67;2.80;;;;;;;14.87;69.22;100579.22;1717165;81;21048;-66
2021/11/20 08:42:05;;;;;;;6.47;2.92;;;;;;;14.94;68.55;100574.84;1723111;81;21530;-66
2021/11/20 08:44:31;;;;;;;14.03;2.80;;;;;;;14.99;68.32;100576.80;1713283;82;21517;-66
2021/11/20 08:47:03;;;;;;;7.78;2.45;;;;;;;15.04;67.89;100573.35;1768687;78;21551;-65
2021/11/20 08:49:30;;;;;;;4.90;2.45;;;;;;;15.05;67.54;100564.30;1771914;79;20933;-66
2021/11/20 08:51:57;;;;;;;6.22;2.40;;;;;;;15.08;67.25;100568.16;1774628;78;21512;-66
2021/11/20 08:54:25;;;;;;;6.95;2.92;;;;;;;15.12;67.04;100567.03;1774419;78;21084;-65
2021/11/20 08:56:56;;;;;;;5.17;2.50;;;;;;;15.23;66.51;100569.61;1742655;80;21455;-65
2021/11/20 08:59:27;;;;;;;8.53;1.98;;;;;;;15.30;65.92;100566.94;1737804;80;21441;-66
2021/11/20 09:02:15;;;;;;;6.78;2.05;;;;;;;15.31;64.99;100564.62;1725483;79;21097;-65
2021/11/20 09:05:02;;;;;;;7.77;2.57;;;;;;;15.32;64.64;100563.66;1770931;78;21122;-66
2021/11/20 09:07:50;;;;;;;2.83;1.70;;;;;;;15.34;64.35;100561.73;1779028;79;21099;-63
2021/11/20 09:10:33;;;;;;;6.42;2.20;;;;;;;15.42;63.92;100550.03;1764014;79;21123;-65
2021/11/20 09:13:17;;;;;;;9.75;2.10;;;;;;;15.48;63.46;100569.06;1760626;79;21195;-65
2021/11/20 09:15:52;;;;;;;7.20;2.20;;;;;;;15.54;63.07;100552.95;1766782;79;21079;-65
2021/11/20 09:18:30;;;;;;;6.10;2.20;;;;;;;15.56;62.64;100549.67;1765444;79;21020;-66
2021/11/20 09:20:59;;;;;;;6.65;2.40;;;;;;;15.60;62.59;100553.46;1762993;79;20981;-65
2021/11/20 09:23:32;;;;;;;5.97;2.20;;;;;;;15.66;62.31;100552.23;1715716;80;21073;-66
2021/11/20 09:26:07;;;;;;;4.62;2.35;;;;;;;15.68;62.03;100554.83;1763778;79;21123;-66
2021/11/20 09:28:35;;;;;;;8.55;2.15;;;;;;;15.72;61.96;100541.05;1763948;79;21533;-65
2021/11/20 09:31:05;;;;;;;5.00;2.08;;;;;;;15.79;61.81;100532.56;1769368;79;22278;-65
2021/11/20 09:33:32;;;;;;;7.85;2.35;;;;;;;15.83;61.48;100536.84;1775600;78;21640;-65
2021/11/20 09:36:00;;;;;;;3.85;2.00;;;;;;;15.84;61.21;100527.27;1766870;79;21068;-65
2021/11/20 09:38:41;;;;;;;6.17;2.00;;;;;;;15.88;61.14;100525.27;1757789;79;21142;-65
2021/11/20 09:41:17;;;;;;;5.58;2.67;;;;;;;15.95;60.63;100509.08;1768235;79;21084;-66
2021/11/20 09:43:47;;;;;;;9.03;2.65;;;;;;;15.95;60.30;100514.48;1758952;79;25340;-65
2021/11/20 09:46:23;;;;;;;8.80;3.35;;;;;;;15.94;60.35;100499.23;1767284;79;21592;-65
2021/11/20 09:49:00;;;;;;;12.15;3.08;;;;;;;15.97;60.25;100497.68;1771962;79;21113;-68
2021/11/20 09:51:30;;;;;;;;;;;;;;;15.98;59.64;100473.73;1770985;79;21103;-65
2021/11/20 09:54:03;;;;;;;12.82;3.70;;;;;;;15.95;59.65;100500.97;1767630;79;20268;-66
2021/11/20 09:56:35;;;;;;;13.90;3.45;;;;;;;15.92;59.60;100474.13;1766738;79;20991;-65
2021/11/20 09:59:20;;;;;;;8.93;3.10;;;;;;;15.82;59.81;100487.80;1749028;79;21039;-68
2021/11/20 10:01:58;;;;;;;10.72;3.15;;;;;;;15.81;59.95;100492.82;1763863;79;21037;-66
2021/11/20 10:04:37;;;;;;;16.30;3.80;;;;;;;15.83;59.99;100480.08;1764564;79;21106;-65
2021/11/20 10:07:37;;;;;;;13.03;3.20;;;;;;;15.85;59.67;100485.76;1749052;79;21050;-66
2021/11/20 10:10:22;;;;;;;9.78;3.62;;;;;;;15.90;59.56;100485.52;1772182;78;21085;-66
2021/11/20 10:13:11;;;;;;;10.45;4.00;;;;;;;15.93;59.31;100494.78;1767536;78;20992;-64
2021/11/20 10:15:53;;;;;;;12.43;3.58;;;;;;;15.85;59.23;100480.85;1776821;78;21005;-66
2021/11/20 10:18:25;;;;;;;27.90;3.92;;;;;;;15.74;59.45;100485.06;1771447;78;21086;-59
2021/11/20 10:20:57;;;;;;;9.93;3.52;;;;;;;15.72;59.55;100482.94;1775216;78;21070;-65
2021/11/20 10:23:49;;;;;;;11.33;3.40;;;;;;;15.75;59.61;100479.20;1771044;78;21135;-58
2021/11/20 10:26:54;;;;;;;7.87;4.00;;;;;;;15.79;59.50;100453.70;1766857;78;21096;-58
2021/11/20 10:30:02;;;;;;;16.50;3.95;;;;;;;15.80;59.42;100470.78;1771497;78;21028;-65
2021/11/20 10:32:55;;;;;;;5.62;3.05;;;;;;;15.83;59.32;100474.67;1772562;78;21136;-66
2021/11/20 10:35:40;;;;;;;13.20;2.42;;;;;;;15.78;59.19;100492.98;1768348;78;21041;-66
2021/11/20 10:38:12;;;;;;;22.93;2.70;;;;;;;15.46;60.55;100477.75;1776930;78;21044;-58
2021/11/20 10:41:12;;;;;;;17.00;2.90;;;;;;;15.08;64.25;100494.41;1772852;78;20998;-58
2021/11/20 10:43:54;;;;;;;14.87;2.50;;;;;;;14.77;66.33;100477.27;1774645;78;21041;-65
2021/11/20 10:46:29;;;;;;;12.93;2.50;;;;;;;14.51;67.63;100483.16;1771010;78;21466;-58
2021/11/20 10:49:36;;;;;;;6.97;2.40;;;;;;;14.37;69.24;100469.56;1773136;78;21038;-57
2021/11/20 10:52:12;;;;;;;6.42;3.15;;;;;;;14.13;69.81;100478.05;1772584;78;22109;-65
2021/11/20 10:55:16;;;;;;;5.17;2.90;;;;;;;13.89;70.90;100471.69;1769120;78;21084;-66
2021/11/20 10:58:13;;;;;;;8.90;2.35;;;;;;;13.80;71.65;100468.11;1770295;78;21469;-66
2021/11/20 11:01:28;;;;;;;7.55;2.27;;;;;;;13.75;71.05;100471.93;1773380;78;21146;-57
2021/11/20 11:04:24;;;;;;;3.30;1.85;;;;;;;13.72;70.70;100461.32;1775888;78;21431;-58
2021/11/20 11:07:03;;;;;;;6.05;2.15;;;;;;;13.82;70.08;100463.55;1736931;80;21023;-57
2021/11/20 11:09:46;;;;;;;4.90;2.35;;;;;;;13.84;69.68;100452.20;1768561;79;20947;-57
2021/11/20 11:12:34;;;;;;;4.92;2.02;;;;;;;13.87;69.40;100450.69;1770099;80;21035;-57
2021/11/20 11:15:18;;;;;;;15.35;2.62;;;;;;;13.89;68.44;100447.43;1768607;79;21143;-58
2021/11/20 11:18:30;;;;;;;6.33;2.67;;;;;;;13.88;68.32;100445.69;1765082;79;21029;-58
2021/11/20 11:21:25;;;;;;;11.08;3.52;;;;;;;13.93;67.66;100440.06;1771308;79;21092;-65
2021/11/20 11:24:15;;;;;;;9.43;2.70;;;;;;;14.01;66.80;100431.92;1767971;79;21093;-65
2021/11/20 11:27:21;;;;;;;7.08;2.77;;;;;;;14.12;66.21;100403.52;1762589;79;21607;-65
2021/11/20 11:30:18;;;;;;;13.22;2.70;;;;;;;14.27;65.21;100413.92;1764821;79;22288;-65
2021/11/20 11:32:46;;;;;;;9.88;3.00;;;;;;;14.35;64.83;100425.64;1745458;79;21186;-65
2021/11/20 11:35:37;;;;;;;17.50;3.60;;;;;;;14.44;63.75;100436.78;1771214;79;22369;-66
2021/11/20 11:38:34;;;;;;;11.53;3.12;;;;;;;14.43;63.05;100422.02;1763851;79;21050;-65
2021/11/20 11:41:29;;;;;;;22.22;3.20;;;;;;;14.42;62.61;100425.67;1768560;79;21390;-64
2021/11/20 11:44:14;;;;;;;18.35;3.37;;;;;;;14.44;62.58;100422.41;1764662;79;26320;-65
2021/11/20 11:46:57;;;;;;;;;;;;;;;14.49;62.34;100436.98;1769023;79;21020;-56
2021/11/20 11:49:52;;;;;;;13.00;2.85;;;;;;;14.49;62.07;100428.44;1772823;80;20191;-58
2021/11/20 11:52:42;;;;;;;17.37;3.27;;;;;;;14.38;61.71;100398.48;1774528;79;21031;-57
2021/11/20 11:55:39;;;;;;;9.90;2.52;;;;;;;14.29;61.60;100429.54;1776104;79;21067;-56
2021/11/20 11:58:32;;;;;;;7.40;2.87;;;;;;;14.15;61.10;100420.41;1776750;79;20978;-66
2021/11/20 12:01:15;;;;;;;10.00;3.30;;;;;;;14.01;60.93;100422.48;1772200;79;21049;-66